sensor_id;sensor_type;location;lat;lon;timestamp;pressure;altitude;pressure_sealevel;temperature;humidity
71772;BME280;59606;52.138;5.424;2023-08-08T00:02:11;101504.72;;;14.38;100.00
71772;BME280;59606;52.138;5.424;2023-08-08T00:04:37;101506.47;;;14.38;100.00
71772;BME280;59606;52.138;5.424;2023-08-08T00:07:04;101498.72;;;14.36;100.00
71772;BME280;59606;52.138;5.424;2023-08-08T00:09:30;101508.06;;;14.41;100.00
71772;BME280;59606;52.138;5.424;2023-08-08T00:11:57;101508.19;;;14.39;100.00
71772;BME280;59606;52.138;5.424;2023-08-08T00:14:24;101510.69;;;14.41;100.00
71772;BME280;59606;52.138;5.424;2023-08-08T00:16:51;101499.25;;;14.42;100.00
71772;BME280;59606;52.138;5.424;2023-08-08T00:19:17;101504.44;;;14.43;100.00
71772;BME280;59606;52.138;5.424;2023-08-08T00:21:44;101500.03;;;14.44;100.00
71772;BME280;59606;52.138;5.424;2023-08-08T00:24:10;101496.47;;;14.45;100.00
71772;BME280;59606;52.138;5.424;2023-08-08T00:26:37;101494.69;;;14.45;100.00
71772;BME280;59606;52.138;5.424;2023-08-08T00:29:04;101493.66;;;14.48;100.00
71772;BME280;59606;52.138;5.424;2023-08-08T00:31:30;101502.53;;;14.45;100.00
71772;BME280;59606;52.138;5.424;2023-08-08T00:33:57;101490.31;;;14.46;100.00
71772;BME280;59606;52.138;5.424;2023-08-08T00:36:23;101491.16;;;14.46;100.00
71772;BME280;59606;52.138;5.424;2023-08-08T00:38:50;101486.75;;;14.47;100.00
71772;BME280;59606;52.138;5.424;2023-08-08T00:41:16;101484.19;;;14.45;100.00
71772;BME280;59606;52.138;5.424;2023-08-08T00:43:43;101488.59;;;14.45;100.00
71772;BME280;59606;52.138;5.424;2023-08-08T00:46:10;101486.81;;;14.45;100.00
71772;BME280;59606;52.138;5.424;2023-08-08T00:48:37;101487.75;;;14.44;100.00
71772;BME280;59606;52.138;5.424;2023-08-08T00:51:04;101479.91;;;14.44;100.00
71772;BME280;59606;52.138;5.424;2023-08-08T00:53:30;101478.22;;;14.43;100.00
71772;BME280;59606;52.138;5.424;2023-08-08T00:55:58;101486.09;;;14.43;100.00
71772;BME280;59606;52.138;5.424;2023-08-08T00:58:26;101478.94;;;14.45;100.00
71772;BME280;59606;52.138;5.424;2023-08-08T01:00:52;101478.88;;;14.47;100.00
71772;BME280;59606;52.138;5.424;2023-08-08T01:03:21;101483.28;;;14.46;100.00
71772;BME280;59606;52.138;5.424;2023-08-08T01:05:51;101466.59;;;14.47;100.00
71772;BME280;59606;52.138;5.424;2023-08-08T01:08:22;101473.53;;;14.48;100.00
71772;BME280;59606;52.138;5.424;2023-08-08T01:10:53;101469.97;;;14.49;100.00
71772;BME280;59606;52.138;5.424;2023-08-08T01:13:21;101472.59;;;14.49;100.00
71772;BME280;59606;52.138;5.424;2023-08-08T01:15:49;101481.22;;;14.51;100.00
71772;BME280;59606;52.138;5.424;2023-08-08T01:18:16;101475.16;;;14.51;100.00
71772;BME280;59606;52.138;5.424;2023-08-08T01:20:44;101476.06;;;14.50;100.00
71772;BME280;59606;52.138;5.424;2023-08-08T01:23:30;101470.81;;;14.50;100.00
71772;BME280;59606;52.138;5.424;2023-08-08T01:25:59;101475.22;;;14.49;100.00
71772;BME280;59606;52.138;5.424;2023-08-08T01:28:26;101472.53;;;14.51;100.00
71772;BME280;59606;52.138;5.424;2023-08-08T01:30:53;101468.13;;;14.51;100.00
71772;BME280;59606;52.138;5.424;2023-08-08T01:33:20;101471.69;;;14.50;100.00
71772;BME280;59606;52.138;5.424;2023-08-08T01:35:53;101475.31;;;14.48;100.00
71772;BME280;59606;52.138;5.424;2023-08-08T01:38:24;101466.53;;;14.49;100.00
71772;BME280;59606;52.138;5.424;2023-08-08T01:40:55;101466.72;;;14.46;100.00
71772;BME280;59606;52.138;5.424;2023-08-08T01:43:23;101466.78;;;14.44;100.00
71772;BME280;59606;52.138;5.424;2023-08-08T01:45:50;101466.91;;;14.43;100.00
71772;BME280;59606;52.138;5.424;2023-08-08T01:48:17;101458.28;;;14.41;100.00
71772;BME280;59606;52.138;5.424;2023-08-08T01:50:44;101452.19;;;14.40;100.00
71772;BME280;59606;52.138;5.424;2023-08-08T01:53:11;101460.06;;;14.40;100.00
71772;BME280;59606;52.138;5.424;2023-08-08T01:55:37;101453.97;;;14.39;100.00
71772;BME280;59606;52.138;5.424;2023-08-08T01:58:04;101447.06;;;14.38;100.00
71772;BME280;59606;52.138;5.424;2023-08-08T02:00:30;101449.56;;;14.40;100.00
71772;BME280;59606;52.138;5.424;2023-08-08T02:02:57;101453.03;;;14.41;100.00
71772;BME280;59606;52.138;5.424;2023-08-08T02:05:25;101454.81;;;14.40;100.00
71772;BME280;59606;52.138;5.424;2023-08-08T02:07:51;101448.63;;;14.41;100.00
71772;BME280;59606;52.138;5.424;2023-08-08T02:10:17;101446.84;;;14.42;100.00
71772;BME280;59606;52.138;5.424;2023-08-08T02:12:44;101449.56;;;14.40;100.00
71772;BME280;59606;52.138;5.424;2023-08-08T02:15:10;101443.56;;;14.38;100.00
71772;BME280;59606;52.138;5.424;2023-08-08T02:17:38;101443.56;;;14.38;100.00
71772;BME280;59606;52.138;5.424;2023-08-08T02:20:06;101438.31;;;14.38;100.00
71772;BME280;59606;52.138;5.424;2023-08-08T02:22:33;101435.88;;;14.35;100.00
71772;BME280;59606;52.138;5.424;2023-08-08T02:25:00;101438.59;;;14.33;100.00
71772;BME280;59606;52.138;5.424;2023-08-08T02:27:26;101436.81;;;14.34;100.00
71772;BME280;59606;52.138;5.424;2023-08-08T02:29:53;101433.47;;;14.32;100.00
71772;BME280;59606;52.138;5.424;2023-08-08T02:32:20;101431.78;;;14.31;100.00
71772;BME280;59606;52.138;5.424;2023-08-08T02:34:46;101440.66;;;14.28;100.00
71772;BME280;59606;52.138;5.424;2023-08-08T02:37:13;101425.88;;;14.27;100.00
71772;BME280;59606;52.138;5.424;2023-08-08T02:39:39;101430.28;;;14.27;100.00
71772;BME280;59606;52.138;5.424;2023-08-08T02:42:06;101430.47;;;14.24;100.00
71772;BME280;59606;52.138;5.424;2023-08-08T02:44:32;101421.75;;;14.23;100.00
71772;BME280;59606;52.138;5.424;2023-08-08T02:46:59;101431.47;;;14.21;100.00
71772;BME280;59606;52.138;5.424;2023-08-08T02:49:25;101434.03;;;14.23;100.00
71772;BME280;59606;52.138;5.424;2023-08-08T02:51:52;101434.22;;;14.20;100.00
71772;BME280;59606;52.138;5.424;2023-08-08T02:54:18;101424.66;;;14.19;100.00
71772;BME280;59606;52.138;5.424;2023-08-08T02:56:45;101430.00;;;14.17;100.00
71772;BME280;59606;52.138;5.424;2023-08-08T02:59:11;101430.94;;;14.16;100.00
71772;BME280;59606;52.138;5.424;2023-08-08T03:01:38;101430.16;;;14.14;100.00
71772;BME280;59606;52.138;5.424;2023-08-08T03:04:06;101420.63;;;14.13;100.00
71772;BME280;59606;52.138;5.424;2023-08-08T03:06:32;101422.31;;;14.14;100.00
71772;BME280;59606;52.138;5.424;2023-08-08T03:08:59;101414.56;;;14.12;100.00
71772;BME280;59606;52.138;5.424;2023-08-08T03:11:25;101411.94;;;14.12;100.00
71772;BME280;59606;52.138;5.424;2023-08-08T03:13:52;101417.25;;;14.11;100.00
71772;BME280;59606;52.138;5.424;2023-08-08T03:16:18;101416.53;;;14.09;100.00
71772;BME280;59606;52.138;5.424;2023-08-08T03:18:45;101413.91;;;14.09;100.00
71772;BME280;59606;52.138;5.424;2023-08-08T03:21:11;101415.69;;;14.08;100.00
71772;BME280;59606;52.138;5.424;2023-08-08T03:23:38;101415.56;;;14.10;100.00
71772;BME280;59606;52.138;5.424;2023-08-08T03:26:04;101414.63;;;14.11;100.00
71772;BME280;59606;52.138;5.424;2023-08-08T03:28:31;101417.25;;;14.11;100.00
71772;BME280;59606;52.138;5.424;2023-08-08T03:30:58;101413.72;;;14.12;100.00
71772;BME280;59606;52.138;5.424;2023-08-08T03:33:24;101417.25;;;14.11;100.00
71772;BME280;59606;52.138;5.424;2023-08-08T03:35:51;101413.72;;;14.12;100.00
71772;BME280;59606;52.138;5.424;2023-08-08T03:38:17;101410.22;;;14.11;100.00
71772;BME280;59606;52.138;5.424;2023-08-08T03:40:44;101407.72;;;14.10;100.00
71772;BME280;59606;52.138;5.424;2023-08-08T03:43:10;101402.66;;;14.07;100.00
71772;BME280;59606;52.138;5.424;2023-08-08T03:45:37;101402.75;;;14.05;100.00
71772;BME280;59606;52.138;5.424;2023-08-08T03:48:04;101402.00;;;14.03;100.00
71772;BME280;59606;52.138;5.424;2023-08-08T03:50:30;101400.31;;;14.02;100.00
71772;BME280;59606;52.138;5.424;2023-08-08T03:52:57;101396.09;;;14.00;100.00
71772;BME280;59606;52.138;5.424;2023-08-08T03:55:24;101393.56;;;13.98;100.00
71772;BME280;59606;52.138;5.424;2023-08-08T03:57:51;101396.28;;;13.97;100.00
71772;BME280;59606;52.138;5.424;2023-08-08T04:00:18;101402.47;;;13.96;100.00
71772;BME280;59606;52.138;5.424;2023-08-08T04:02:44;101399.94;;;13.94;100.00
71772;BME280;59606;52.138;5.424;2023-08-08T04:05:11;101396.47;;;13.94;100.00
71772;BME280;59606;52.138;5.424;2023-08-08T04:07:38;101391.53;;;13.89;100.00
71772;BME280;59606;52.138;5.424;2023-08-08T04:10:05;101389.75;;;13.89;100.00
71772;BME280;59606;52.138;5.424;2023-08-08T04:12:32;101394.22;;;13.87;100.00
71772;BME280;59606;52.138;5.424;2023-08-08T04:14:59;101396.09;;;13.85;100.00
71772;BME280;59606;52.138;5.424;2023-08-08T04:17:25;101385.69;;;13.84;100.00
71772;BME280;59606;52.138;5.424;2023-08-08T04:19:52;101383.25;;;13.81;100.00
71772;BME280;59606;52.138;5.424;2023-08-08T04:22:18;101380.81;;;13.78;100.00
71772;BME280;59606;52.138;5.424;2023-08-08T04:24:45;101376.72;;;13.74;100.00
71772;BME280;59606;52.138;5.424;2023-08-08T04:27:11;101380.34;;;13.71;100.00
71772;BME280;59606;52.138;5.424;2023-08-08T04:29:38;101385.75;;;13.68;100.00
71772;BME280;59606;52.138;5.424;2023-08-08T04:32:05;101390.25;;;13.66;100.00
71772;BME280;59606;52.138;5.424;2023-08-08T04:34:32;101396.44;;;13.65;100.00
71772;BME280;59606;52.138;5.424;2023-08-08T04:36:58;101398.19;;;13.64;100.00
71772;BME280;59606;52.138;5.424;2023-08-08T04:39:24;101398.97;;;13.66;100.00
71772;BME280;59606;52.138;5.424;2023-08-08T04:41:51;101393.72;;;13.66;100.00
71772;BME280;59606;52.138;5.424;2023-08-08T04:44:17;101395.41;;;13.67;100.00
71772;BME280;59606;52.138;5.424;2023-08-08T04:46:44;101391.88;;;13.68;100.00
71772;BME280;59606;52.138;5.424;2023-08-08T04:49:10;101386.53;;;13.70;100.00
71772;BME280;59606;52.138;5.424;2023-08-08T04:51:37;101388.19;;;13.71;100.00
71772;BME280;59606;52.138;5.424;2023-08-08T04:54:04;101384.75;;;13.71;100.00
71772;BME280;59606;52.138;5.424;2023-08-08T04:56:30;101381.38;;;13.68;100.00
71772;BME280;59606;52.138;5.424;2023-08-08T04:58:57;101386.69;;;13.67;100.00
71772;BME280;59606;52.138;5.424;2023-08-08T05:01:23;101376.22;;;13.67;100.00
71772;BME280;59606;52.138;5.424;2023-08-08T05:03:50;101377.91;;;13.68;100.00
71772;BME280;59606;52.138;5.424;2023-08-08T05:06:20;101384.00;;;13.68;100.00
71772;BME280;59606;52.138;5.424;2023-08-08T05:08:49;101386.53;;;13.70;100.00
71772;BME280;59606;52.138;5.424;2023-08-08T05:11:16;101380.63;;;13.66;100.00
71772;BME280;59606;52.138;5.424;2023-08-08T05:13:43;101382.13;;;13.71;100.00
71772;BME280;59606;52.138;5.424;2023-08-08T05:16:09;101386.25;;;13.75;100.00
71772;BME280;59606;52.138;5.424;2023-08-08T05:18:36;101382.78;;;13.74;100.00
71772;BME280;59606;52.138;5.424;2023-08-08T05:21:02;101384.50;;;13.75;100.00
71772;BME280;59606;52.138;5.424;2023-08-08T05:23:29;101381.47;;;13.81;100.00
71772;BME280;59606;52.138;5.424;2023-08-08T05:25:55;101383.09;;;13.84;100.00
71772;BME280;59606;52.138;5.424;2023-08-08T05:28:22;101392.66;;;13.85;100.00
71772;BME280;59606;52.138;5.424;2023-08-08T05:30:48;101398.72;;;13.85;100.00
71772;BME280;59606;52.138;5.424;2023-08-08T05:33:15;101395.06;;;13.88;100.00
71772;BME280;59606;52.138;5.424;2023-08-08T05:35:41;101395.91;;;13.88;100.00
71772;BME280;59606;52.138;5.424;2023-08-08T05:38:08;101398.06;;;13.96;100.00
71772;BME280;59606;52.138;5.424;2023-08-08T05:40:35;101397.31;;;13.94;100.00
71772;BME280;59606;52.138;5.424;2023-08-08T05:43:03;101393.78;;;14.09;100.00
71772;BME280;59606;52.138;5.424;2023-08-08T05:45:29;101393.59;;;14.55;100.00
71772;BME280;59606;52.138;5.424;2023-08-08T05:47:56;101397.91;;;15.38;100.00
71772;BME280;59606;52.138;5.424;2023-08-08T05:50:23;101399.56;;;16.30;100.00
71772;BME280;59606;52.138;5.424;2023-08-08T05:52:49;101395.47;;;17.12;99.35
71772;BME280;59606;52.138;5.424;2023-08-08T05:55:16;101390.69;;;17.87;93.60
71772;BME280;59606;52.138;5.424;2023-08-08T05:57:42;101394.91;;;18.35;90.31
71772;BME280;59606;52.138;5.424;2023-08-08T06:00:09;101387.53;;;18.61;87.79
71772;BME280;59606;52.138;5.424;2023-08-08T06:02:37;101391.25;;;18.81;84.89
71772;BME280;59606;52.138;5.424;2023-08-08T06:05:04;101394.66;;;19.04;82.84
71772;BME280;59606;52.138;5.424;2023-08-08T06:07:31;101389.09;;;18.86;81.58
71772;BME280;59606;52.138;5.424;2023-08-08T06:09:58;101387.69;;;18.59;84.04
71772;BME280;59606;52.138;5.424;2023-08-08T06:12:24;101392.13;;;17.92;84.54
71772;BME280;59606;52.138;5.424;2023-08-08T06:14:51;101398.75;;;17.03;87.00
71772;BME280;59606;52.138;5.424;2023-08-08T06:17:17;101410.81;;;16.32;91.53
71772;BME280;59606;52.138;5.424;2023-08-08T06:19:44;101409.81;;;15.83;93.44
71772;BME280;59606;52.138;5.424;2023-08-08T06:22:12;101409.53;;;15.61;97.36
71772;BME280;59606;52.138;5.424;2023-08-08T06:24:38;101418.97;;;15.50;96.90
71772;BME280;59606;52.138;5.424;2023-08-08T06:27:05;101410.72;;;15.42;99.18
71772;BME280;59606;52.138;5.424;2023-08-08T06:29:32;101406.53;;;15.40;99.21
71772;BME280;59606;52.138;5.424;2023-08-08T06:31:58;101414.50;;;15.38;98.43
71772;BME280;59606;52.138;5.424;2023-08-08T06:34:25;101413.59;;;15.39;99.20
71772;BME280;59606;52.138;5.424;2023-08-08T06:36:52;101419.69;;;15.40;99.24
71772;BME280;59606;52.138;5.424;2023-08-08T06:39:19;101415.78;;;15.45;97.87
71772;BME280;59606;52.138;5.424;2023-08-08T06:41:47;101417.56;;;15.45;98.30
71772;BME280;59606;52.138;5.424;2023-08-08T06:44:14;101414.00;;;15.46;96.27
71772;BME280;59606;52.138;5.424;2023-08-08T06:46:40;101420.75;;;15.50;97.04
71772;BME280;59606;52.138;5.424;2023-08-08T06:49:07;101423.25;;;15.51;95.39
71772;BME280;59606;52.138;5.424;2023-08-08T06:51:35;101416.13;;;15.53;95.95
71772;BME280;59606;52.138;5.424;2023-08-08T06:54:01;101424.72;;;15.55;94.56
71772;BME280;59606;52.138;5.424;2023-08-08T06:56:29;101422.84;;;15.57;93.61
71772;BME280;59606;52.138;5.424;2023-08-08T06:58:55;101423.41;;;15.63;92.99
71772;BME280;59606;52.138;5.424;2023-08-08T07:01:22;101415.28;;;15.66;90.90
71772;BME280;59606;52.138;5.424;2023-08-08T07:03:48;101419.53;;;15.68;93.28
71772;BME280;59606;52.138;5.424;2023-08-08T07:06:17;101419.13;;;15.74;91.31
71772;BME280;59606;52.138;5.424;2023-08-08T07:08:44;101426.50;;;15.82;92.54
71772;BME280;59606;52.138;5.424;2023-08-08T07:11:10;101422.28;;;15.92;94.63
71772;BME280;59606;52.138;5.424;2023-08-08T07:13:37;101420.72;;;16.02;93.16
71772;BME280;59606;52.138;5.424;2023-08-08T07:16:04;101416.97;;;16.07;91.83
71772;BME280;59606;52.138;5.424;2023-08-08T07:18:30;101423.69;;;16.11;87.46
71772;BME280;59606;52.138;5.424;2023-08-08T07:20:57;101414.13;;;16.10;87.66
71772;BME280;59606;52.138;5.424;2023-08-08T07:23:23;101411.78;;;16.18;88.58
71772;BME280;59606;52.138;5.424;2023-08-08T07:25:50;101406.00;;;16.25;89.35
71772;BME280;59606;52.138;5.424;2023-08-08T07:28:17;101414.41;;;16.31;86.70
71772;BME280;59606;52.138;5.424;2023-08-08T07:30:44;101412.50;;;16.33;84.05
71772;BME280;59606;52.138;5.424;2023-08-08T07:33:10;101406.19;;;16.35;85.38
71772;BME280;59606;52.138;5.424;2023-08-08T07:35:37;101409.97;;;16.44;85.07
71772;BME280;59606;52.138;5.424;2023-08-08T07:38:04;101404.28;;;16.50;85.18
71772;BME280;59606;52.138;5.424;2023-08-08T07:40:30;101407.22;;;16.58;85.45
71772;BME280;59606;52.138;5.424;2023-08-08T07:42:57;101397.59;;;16.70;84.30
71772;BME280;59606;52.138;5.424;2023-08-08T07:45:23;101390.34;;;16.73;82.92
71772;BME280;59606;52.138;5.424;2023-08-08T07:47:50;101391.59;;;16.81;81.89
71772;BME280;59606;52.138;5.424;2023-08-08T07:50:17;101391.03;;;16.88;82.41
71772;BME280;59606;52.138;5.424;2023-08-08T07:52:43;101392.50;;;16.92;79.55
71772;BME280;59606;52.138;5.424;2023-08-08T07:55:10;101387.13;;;16.94;81.43
71772;BME280;59606;52.138;5.424;2023-08-08T07:57:36;101384.66;;;17.04;78.17
71772;BME280;59606;52.138;5.424;2023-08-08T08:00:04;101393.66;;;17.12;77.52
71772;BME280;59606;52.138;5.424;2023-08-08T08:02:42;101392.41;;;17.29;79.07
71772;BME280;59606;52.138;5.424;2023-08-08T08:05:09;101391.13;;;17.35;77.39
71772;BME280;59606;52.138;5.424;2023-08-08T08:07:37;101387.66;;;17.34;75.52
71772;BME280;59606;52.138;5.424;2023-08-08T08:10:06;101387.75;;;17.33;75.09
71772;BME280;59606;52.138;5.424;2023-08-08T08:12:34;101386.19;;;17.30;73.31
71772;BME280;59606;52.138;5.424;2023-08-08T08:15:02;101381.78;;;17.31;74.54
71772;BME280;59606;52.138;5.424;2023-08-08T08:17:28;101379.75;;;17.34;75.73
71772;BME280;59606;52.138;5.424;2023-08-08T08:19:55;101379.75;;;17.34;77.46
71772;BME280;59606;52.138;5.424;2023-08-08T08:22:22;101379.31;;;17.40;73.06
71772;BME280;59606;52.138;5.424;2023-08-08T08:24:48;101383.03;;;17.49;72.49
71772;BME280;59606;52.138;5.424;2023-08-08T08:27:15;101384.47;;;17.53;73.92
71772;BME280;59606;52.138;5.424;2023-08-08T08:29:42;101383.03;;;17.49;72.42
71772;BME280;59606;52.138;5.424;2023-08-08T08:32:08;101386.84;;;17.45;71.70
71772;BME280;59606;52.138;5.424;2023-08-08T08:34:36;101383.25;;;17.46;73.70
71772;BME280;59606;52.138;5.424;2023-08-08T08:37:03;101384.81;;;17.49;69.31
71772;BME280;59606;52.138;5.424;2023-08-08T08:39:29;101377.06;;;17.47;72.79
71772;BME280;59606;52.138;5.424;2023-08-08T08:41:59;101384.69;;;17.50;72.40
71772;BME280;59606;52.138;5.424;2023-08-08T08:44:31;101392.19;;;17.67;72.68
71772;BME280;59606;52.138;5.424;2023-08-08T08:47:02;101388.88;;;17.77;70.20
71772;BME280;59606;52.138;5.424;2023-08-08T08:49:30;101394.50;;;17.83;71.38
71772;BME280;59606;52.138;5.424;2023-08-08T08:51:58;101396.22;;;17.84;71.05
71772;BME280;59606;52.138;5.424;2023-08-08T08:54:28;101391.03;;;17.83;69.88
71772;BME280;59606;52.138;5.424;2023-08-08T08:56:58;101390.19;;;17.82;69.59
71772;BME280;59606;52.138;5.424;2023-08-08T08:59:25;101402.50;;;17.71;67.97
71772;BME280;59606;52.138;5.424;2023-08-08T09:01:52;101405.00;;;17.72;68.93
71772;BME280;59606;52.138;5.424;2023-08-08T09:04:20;101399.06;;;17.81;69.52
71772;BME280;59606;52.138;5.424;2023-08-08T09:06:49;101407.59;;;17.85;68.63
71772;BME280;59606;52.138;5.424;2023-08-08T09:09:16;101391.06;;;17.94;67.16
71772;BME280;59606;52.138;5.424;2023-08-08T09:11:47;101393.94;;;18.02;67.70
71772;BME280;59606;52.138;5.424;2023-08-08T09:14:18;101394.31;;;17.98;66.54
71772;BME280;59606;52.138;5.424;2023-08-08T09:16:46;101401.94;;;17.89;67.19
71772;BME280;59606;52.138;5.424;2023-08-08T09:19:14;101404.50;;;17.91;67.36
71772;BME280;59606;52.138;5.424;2023-08-08T09:21:41;101403.00;;;17.87;65.72
71772;BME280;59606;52.138;5.424;2023-08-08T09:24:08;101403.00;;;17.87;65.74
71772;BME280;59606;52.138;5.424;2023-08-08T09:26:35;101403.38;;;17.82;66.16
71772;BME280;59606;52.138;5.424;2023-08-08T09:29:02;101402.91;;;17.88;66.76
71772;BME280;59606;52.138;5.424;2023-08-08T09:31:30;101396.72;;;18.01;66.31
71772;BME280;59606;52.138;5.424;2023-08-08T09:33:58;101397.31;;;18.16;65.55
71772;BME280;59606;52.138;5.424;2023-08-08T09:36:25;101391.78;;;18.19;64.77
71772;BME280;59606;52.138;5.424;2023-08-08T09:38:55;101393.34;;;18.32;66.09
71772;BME280;59606;52.138;5.424;2023-08-08T09:41:22;101398.63;;;18.55;66.70
71772;BME280;59606;52.138;5.424;2023-08-08T09:43:51;101394.28;;;18.65;64.96
71772;BME280;59606;52.138;5.424;2023-08-08T09:46:19;101388.25;;;18.74;62.75
71772;BME280;59606;52.138;5.424;2023-08-08T09:48:46;101390.06;;;18.74;62.31
71772;BME280;59606;52.138;5.424;2023-08-08T09:51:14;101393.44;;;18.65;62.96
71772;BME280;59606;52.138;5.424;2023-08-08T09:53:41;101402.53;;;18.60;64.60
71772;BME280;59606;52.138;5.424;2023-08-08T09:56:08;101408.44;;;18.53;63.82
71772;BME280;59606;52.138;5.424;2023-08-08T09:58:35;101407.63;;;18.41;65.08
71772;BME280;59606;52.138;5.424;2023-08-08T10:01:01;101415.88;;;18.36;63.40
71772;BME280;59606;52.138;5.424;2023-08-08T10:03:29;101411.59;;;18.24;65.00
71772;BME280;59606;52.138;5.424;2023-08-08T10:05:56;101414.47;;;18.21;66.10
71772;BME280;59606;52.138;5.424;2023-08-08T10:08:23;101402.69;;;18.36;66.59
71772;BME280;59606;52.138;5.424;2023-08-08T10:10:50;101413.63;;;18.54;65.79
71772;BME280;59606;52.138;5.424;2023-08-08T10:13:24;101407.00;;;18.49;64.84
71772;BME280;59606;52.138;5.424;2023-08-08T10:15:51;101410.97;;;18.54;62.05
71772;BME280;59606;52.138;5.424;2023-08-08T10:18:21;101402.66;;;18.70;62.71
71772;BME280;59606;52.138;5.424;2023-08-08T10:20:49;101403.13;;;18.87;64.92
71772;BME280;59606;52.138;5.424;2023-08-08T10:23:19;101413.16;;;19.04;62.45
71772;BME280;59606;52.138;5.424;2023-08-08T10:25:47;101412.84;;;18.86;62.98
71772;BME280;59606;52.138;5.424;2023-08-08T10:28:17;101419.59;;;18.79;62.58
71772;BME280;59606;52.138;5.424;2023-08-08T10:30:55;101422.72;;;18.73;61.14
71772;BME280;59606;52.138;5.424;2023-08-08T10:33:27;101420.44;;;18.79;64.86
71772;BME280;59606;52.138;5.424;2023-08-08T10:38:26;101421.13;;;18.93;61.46
71772;BME280;59606;52.138;5.424;2023-08-08T10:40:57;101412.13;;;18.95;62.15
71772;BME280;59606;52.138;5.424;2023-08-08T10:43:26;101418.16;;;19.18;64.13
71772;BME280;59606;52.138;5.424;2023-08-08T10:45:57;101420.91;;;19.17;61.40
71772;BME280;59606;52.138;5.424;2023-08-08T10:48:49;101420.53;;;19.21;60.97
71772;BME280;59606;52.138;5.424;2023-08-08T10:51:16;101419.25;;;19.16;60.48
71772;BME280;59606;52.138;5.424;2023-08-08T10:53:43;101421.97;;;19.25;61.88
71772;BME280;59606;52.138;5.424;2023-08-08T10:56:13;101418.56;;;19.35;63.12
71772;BME280;59606;52.138;5.424;2023-08-08T10:58:42;101412.06;;;19.39;60.83
71772;BME280;59606;52.138;5.424;2023-08-08T11:01:13;101417.88;;;19.33;56.54
71772;BME280;59606;52.138;5.424;2023-08-08T11:03:41;101415.38;;;19.20;58.09
71772;BME280;59606;52.138;5.424;2023-08-08T11:06:10;101412.34;;;19.24;59.99
71772;BME280;59606;52.138;5.424;2023-08-08T11:08:37;101409.34;;;19.29;60.00
71772;BME280;59606;52.138;5.424;2023-08-08T11:11:05;101417.72;;;19.34;60.33
71772;BME280;59606;52.138;5.424;2023-08-08T11:13:33;101415.31;;;19.42;59.94
71772;BME280;59606;52.138;5.424;2023-08-08T11:16:00;101411.38;;;19.58;60.89
71772;BME280;59606;52.138;5.424;2023-08-08T11:18:28;101418.72;;;19.65;57.86
71772;BME280;59606;52.138;5.424;2023-08-08T11:20:55;101415.91;;;19.67;59.65
71772;BME280;59606;52.138;5.424;2023-08-08T11:23:38;101417.66;;;19.77;59.87
71772;BME280;59606;52.138;5.424;2023-08-08T11:26:05;101416.41;;;19.82;59.66
71772;BME280;59606;52.138;5.424;2023-08-08T11:28:34;101419.94;;;19.82;57.13
71772;BME280;59606;52.138;5.424;2023-08-08T11:31:01;101409.56;;;19.58;57.39
71772;BME280;59606;52.138;5.424;2023-08-08T11:33:28;101411.75;;;19.53;57.53
71772;BME280;59606;52.138;5.424;2023-08-08T11:35:56;101408.22;;;19.43;58.79
71772;BME280;59606;52.138;5.424;2023-08-08T11:38:23;101405.25;;;19.36;59.22
71772;BME280;59606;52.138;5.424;2023-08-08T11:40:50;101411.75;;;19.53;61.19
71772;BME280;59606;52.138;5.424;2023-08-08T11:43:19;101406.19;;;19.67;57.54
71772;BME280;59606;52.138;5.424;2023-08-08T11:45:48;101403.19;;;19.82;59.12
71772;BME280;59606;52.138;5.424;2023-08-08T11:48:15;101398.78;;;19.82;57.04
71772;BME280;59606;52.138;5.424;2023-08-08T11:50:42;101403.72;;;19.96;57.26
71772;BME280;59606;52.138;5.424;2023-08-08T11:53:11;101389.16;;;20.12;57.88
71772;BME280;59606;52.138;5.424;2023-08-08T11:55:38;101388.41;;;20.31;59.04
71772;BME280;59606;52.138;5.424;2023-08-08T11:58:05;101404.88;;;20.44;56.85
71772;BME280;59606;52.138;5.424;2023-08-08T12:00:32;101404.72;;;20.45;57.77
71772;BME280;59606;52.138;5.424;2023-08-08T12:03:01;101399.03;;;20.40;56.89
71772;BME280;59606;52.138;5.424;2023-08-08T12:05:36;101397.03;;;20.23;57.93
71772;BME280;59606;52.138;5.424;2023-08-08T12:08:05;101395.78;;;20.27;57.97
71772;BME280;59606;52.138;5.424;2023-08-08T12:10:32;101400.75;;;20.20;57.77
71772;BME280;59606;52.138;5.424;2023-08-08T12:12:58;101389.44;;;20.09;57.86
71772;BME280;59606;52.138;5.424;2023-08-08T12:15:31;101387.94;;;20.16;59.95
71772;BME280;59606;52.138;5.424;2023-08-08T12:17:58;101393.97;;;20.28;59.45
71772;BME280;59606;52.138;5.424;2023-08-08T12:20:27;101388.69;;;20.37;59.50
71772;BME280;59606;52.138;5.424;2023-08-08T12:22:55;101393.28;;;20.25;58.58
71772;BME280;59606;52.138;5.424;2023-08-08T12:25:22;101385.03;;;20.29;58.51
71772;BME280;59606;52.138;5.424;2023-08-08T12:27:49;101398.25;;;20.19;58.93
71772;BME280;59606;52.138;5.424;2023-08-08T12:30:17;101395.31;;;20.22;57.32
71772;BME280;59606;52.138;5.424;2023-08-08T12:32:44;101405.34;;;20.18;60.47
71772;BME280;59606;52.138;5.424;2023-08-08T12:35:11;101397.41;;;20.18;61.77
71772;BME280;59606;52.138;5.424;2023-08-08T12:37:39;101395.31;;;20.12;59.42
71772;BME280;59606;52.138;5.424;2023-08-08T12:40:06;101396.06;;;20.34;61.17
71772;BME280;59606;52.138;5.424;2023-08-08T12:42:33;101394.88;;;20.47;57.86
71772;BME280;59606;52.138;5.424;2023-08-08T12:45:02;101399.44;;;20.45;59.34
71772;BME280;59606;52.138;5.424;2023-08-08T12:47:29;101386.69;;;20.51;58.63
71772;BME280;59606;52.138;5.424;2023-08-08T12:49:58;101384.19;;;20.59;60.21